createdAt,value
2023-02-21T00:01:40.985Z,8.52
2023-02-21T00:04:45.200Z,13.98
2023-02-21T00:07:49.280Z,18.75
2023-02-21T00:10:53.548Z,21.88
2023-02-21T00:13:57.990Z,20.73
2023-02-21T00:17:02.247Z,5.15
2023-02-21T00:20:06.340Z,10.25
2023-02-21T00:23:10.402Z,17.17
2023-02-21T00:26:14.548Z,27.23
2023-02-21T00:29:18.680Z,15.85
2023-02-21T00:32:23.322Z,13.07
2023-02-21T00:35:27.382Z,12.60
2023-02-21T00:38:31.504Z,9.20
2023-02-21T00:41:35.676Z,10.45
2023-02-21T00:44:39.780Z,7.97
2023-02-21T00:47:43.953Z,8.45
2023-02-21T00:50:48.004Z,5.90
2023-02-21T00:53:52.171Z,6.05
2023-02-21T00:56:56.269Z,4.82
2023-02-21T01:00:00.308Z,4.35
2023-02-21T01:03:04.561Z,4.07
2023-02-21T01:06:09.221Z,3.80
2023-02-21T01:09:13.231Z,3.70
2023-02-21T01:12:17.347Z,3.10
2023-02-21T01:15:21.361Z,3.38
2023-02-21T01:18:25.443Z,2.53
2023-02-21T01:21:34.542Z,2.63
2023-02-21T01:24:38.593Z,2.55
2023-02-21T01:27:42.798Z,2.50
2023-02-21T01:30:47.033Z,2.45
2023-02-21T01:34:00.840Z,2.15
2023-02-21T01:37:05.186Z,2.63
2023-02-21T01:40:09.196Z,2.17
2023-02-21T01:43:13.280Z,1.58
2023-02-21T01:46:17.388Z,1.67
2023-02-21T01:49:32.509Z,2.47
2023-02-21T01:52:37.115Z,1.60
2023-02-21T01:55:41.192Z,1.85
2023-02-21T01:58:47.277Z,1.65
2023-02-21T02:01:59.313Z,2.08
2023-02-21T02:05:06.951Z,1.52
2023-02-21T02:08:12.142Z,1.88
2023-02-21T02:11:43.150Z,1.67
2023-02-21T02:14:45.189Z,1.70
2023-02-21T02:17:54.719Z,1.70
2023-02-21T02:20:55.258Z,1.50
2023-02-21T02:23:58.886Z,1.33
2023-02-21T02:27:21.786Z,1.33
2023-02-21T02:30:45.659Z,1.45
2023-02-21T02:33:47.082Z,1.65
2023-02-21T02:36:43.959Z,1.00
2023-02-21T02:40:01.717Z,1.40
2023-02-21T02:42:56.840Z,1.17
2023-02-21T02:45:54.781Z,0.85
2023-02-21T02:48:47.253Z,0.88
2023-02-21T02:51:34.538Z,0.77
2023-02-21T02:54:22.355Z,0.90
2023-02-21T02:57:13.225Z,0.80
2023-02-21T02:59:58.991Z,0.88
2023-02-21T03:03:03.629Z,0.60
2023-02-21T03:06:10.675Z,0.80
2023-02-21T03:09:21.179Z,0.88
2023-02-21T03:12:18.308Z,0.88
2023-02-21T03:15:26.034Z,1.00
2023-02-21T03:18:24.446Z,0.98
2023-02-21T03:21:15.746Z,0.70
2023-02-21T03:24:04.711Z,1.02
2023-02-21T03:26:56.663Z,0.90
2023-02-21T03:30:04.706Z,1.00
2023-02-21T03:32:53.415Z,1.08
2023-02-21T03:35:41.862Z,1.10
2023-02-21T03:38:29.785Z,0.93
2023-02-21T03:41:16.563Z,0.93
2023-02-21T03:44:02.044Z,0.60
2023-02-21T03:46:47.811Z,1.10
2023-02-21T03:49:33.534Z,0.70
2023-02-21T03:52:19.065Z,1.10
2023-02-21T03:55:05.806Z,0.85
2023-02-21T03:57:51.593Z,0.90
2023-02-21T04:00:37.530Z,1.05
2023-02-21T04:03:24.075Z,1.40
2023-02-21T04:06:13.550Z,1.80
2023-02-21T04:08:59.840Z,1.92
2023-02-21T04:11:46.964Z,1.88
2023-02-21T04:14:32.797Z,2.13
2023-02-21T04:17:18.549Z,2.40
2023-02-21T04:20:04.963Z,2.42
2023-02-21T04:23:03.056Z,2.22
2023-02-21T04:25:49.106Z,2.83
2023-02-21T04:28:41.205Z,2.30
2023-02-21T04:31:26.616Z,2.22
2023-02-21T04:34:12.589Z,2.22
2023-02-21T04:37:01.808Z,2.03
2023-02-21T04:39:47.566Z,1.80
2023-02-21T04:42:35.152Z,1.80
2023-02-21T04:45:21.422Z,1.90
2023-02-21T04:48:06.732Z,2.00
2023-02-21T04:50:52.584Z,2.08
2023-02-21T04:53:37.856Z,1.60
2023-02-21T04:56:25.560Z,2.00
2023-02-21T04:59:11.575Z,2.28
2023-02-21T05:01:56.779Z,2.35
2023-02-21T05:04:43.398Z,2.50
2023-02-21T05:07:28.916Z,2.55
2023-02-21T05:10:16.243Z,2.50
2023-02-21T05:13:01.680Z,2.42
2023-02-21T05:15:47.093Z,2.10
2023-02-21T05:18:34.684Z,2.30
2023-02-21T05:21:20.896Z,2.30
2023-02-21T05:24:07.571Z,2.22
2023-02-21T05:26:53.905Z,1.70
2023-02-21T05:29:39.410Z,2.10
2023-02-21T05:32:24.791Z,2.10
2023-02-21T05:35:11.962Z,1.50
2023-02-21T05:37:57.316Z,1.50
2023-02-21T05:40:42.845Z,1.95
2023-02-21T05:43:29.126Z,1.25
2023-02-21T05:46:22.456Z,1.33
2023-02-21T05:49:08.123Z,1.15
2023-02-21T05:51:53.864Z,1.17
2023-02-21T05:54:39.500Z,1.08
2023-02-21T05:57:24.882Z,1.40
2023-02-21T06:00:33.951Z,1.10
2023-02-21T06:03:19.313Z,1.05
2023-02-21T06:06:05.140Z,1.27
2023-02-21T06:08:50.743Z,0.80
2023-02-21T06:11:38.171Z,1.10
2023-02-21T06:14:24.077Z,1.02
2023-02-21T06:17:09.918Z,0.60
2023-02-21T06:19:58.265Z,0.60
2023-02-21T06:22:44.149Z,0.65
2023-02-21T06:25:29.641Z,0.73
2023-02-21T06:28:15.089Z,0.80
2023-02-21T06:31:00.415Z,0.60
2023-02-21T06:33:47.062Z,1.02
2023-02-21T06:36:32.406Z,1.13
2023-02-21T06:39:17.703Z,0.70
2023-02-21T06:42:03.256Z,0.70
2023-02-21T06:44:49.811Z,0.93
2023-02-21T06:47:35.270Z,1.23
2023-02-21T06:50:20.630Z,1.00
2023-02-21T06:53:06.051Z,1.52
2023-02-21T06:55:52.279Z,1.20
2023-02-21T06:58:37.773Z,1.13
2023-02-21T07:01:23.999Z,1.38
2023-02-21T07:04:09.323Z,1.63
2023-02-21T07:06:54.754Z,1.67
2023-02-21T07:09:40.306Z,1.60
2023-02-21T07:12:25.731Z,1.40
2023-02-21T07:15:11.285Z,1.42
2023-02-21T07:17:56.551Z,1.50
2023-02-21T07:20:41.941Z,1.50
2023-02-21T07:23:27.325Z,1.60
2023-02-21T07:26:13.027Z,1.85
2023-02-21T07:28:58.542Z,2.08
2023-02-21T07:31:44.014Z,1.95
2023-02-21T07:34:29.362Z,1.70
2023-02-21T07:37:14.919Z,1.58
2023-02-21T07:40:00.811Z,2.00
2023-02-21T07:42:48.128Z,1.98
2023-02-21T07:45:33.522Z,1.50
2023-02-21T07:48:19.056Z,1.60
2023-02-21T07:51:06.451Z,1.13
2023-02-21T07:53:51.833Z,1.30
2023-02-21T07:56:43.610Z,0.85
2023-02-21T07:59:29.179Z,1.10
2023-02-21T08:02:15.420Z,1.08
2023-02-21T08:05:00.779Z,1.02
2023-02-21T08:07:46.562Z,1.10
2023-02-21T08:10:31.751Z,1.20
2023-02-21T08:13:17.246Z,1.30
2023-02-21T08:16:03.094Z,1.38
2023-02-21T08:18:50.835Z,1.00
2023-02-21T08:21:36.599Z,1.00
2023-02-21T08:24:22.280Z,1.00
2023-02-21T08:27:07.677Z,0.93
2023-02-21T08:29:53.318Z,1.10
2023-02-21T08:32:38.683Z,0.70
2023-02-21T08:35:24.040Z,0.98
2023-02-21T08:38:10.603Z,0.88
2023-02-21T08:40:57.788Z,0.70
2023-02-21T08:43:43.070Z,0.90
2023-02-21T08:46:28.323Z,0.90
2023-02-21T08:49:14.375Z,0.88
2023-02-21T08:51:59.773Z,0.98
2023-02-21T08:54:45.633Z,1.10
2023-02-21T08:57:30.924Z,1.15
2023-02-21T09:00:18.119Z,1.10
2023-02-21T09:03:03.907Z,1.10
2023-02-21T09:05:49.488Z,1.20
2023-02-21T09:08:37.047Z,0.80
2023-02-21T09:11:22.828Z,0.90
2023-02-21T09:14:08.540Z,0.90
2023-02-21T09:16:53.717Z,0.90
2023-02-21T09:19:39.641Z,1.02
2023-02-21T09:22:25.104Z,0.70
2023-02-21T09:25:13.174Z,0.75
2023-02-21T09:28:00.532Z,0.60
2023-02-21T09:30:46.753Z,0.70
2023-02-21T09:33:32.315Z,0.57
2023-02-21T09:36:23.642Z,0.30
2023-02-21T09:39:09.908Z,0.60
2023-02-21T09:41:57.547Z,0.20
2023-02-21T09:44:43.607Z,0.43
2023-02-21T09:47:36.608Z,0.30
2023-02-21T09:50:27.887Z,0.20
2023-02-21T09:53:22.475Z,0.30
2023-02-21T09:56:29.258Z,0.50
2023-02-21T09:59:16.363Z,0.50
2023-02-21T10:02:10.911Z,0.22
2023-02-21T10:05:31.772Z,0.32
2023-02-21T10:08:47.622Z,0.22
2023-02-21T10:12:07.214Z,0.30
2023-02-21T10:15:01.824Z,0.30
2023-02-21T10:17:57.431Z,0.38
2023-02-21T10:20:49.696Z,0.40
2023-02-21T10:26:32.784Z,0.47
2023-02-21T10:29:23.908Z,0.30
2023-02-21T10:32:10.165Z,0.28
2023-02-21T10:34:58.731Z,0.38
2023-02-21T10:37:51.926Z,0.30
2023-02-21T10:41:03.931Z,0.30
2023-02-21T10:43:55.265Z,0.30
2023-02-21T10:46:47.735Z,0.30
2023-02-21T10:50:00.776Z,0.32
2023-02-21T10:52:51.637Z,0.30
2023-02-21T10:55:37.082Z,0.50
2023-02-21T10:58:27.904Z,0.40
2023-02-21T11:01:25.652Z,0.38
2023-02-21T11:04:20.350Z,0.50
2023-02-21T11:07:11.747Z,0.20
2023-02-21T11:09:57.150Z,0.10
2023-02-21T11:12:42.825Z,0.40
2023-02-21T11:15:28.151Z,0.32
2023-02-21T11:18:25.932Z,0.30
2023-02-21T11:21:14.148Z,0.30
2023-02-21T11:24:03.296Z,0.50
2023-02-21T11:26:53.799Z,0.20
2023-02-21T11:29:44.853Z,0.80
2023-02-21T11:32:37.838Z,0.40
2023-02-21T11:35:31.356Z,0.80
2023-02-21T11:38:47.369Z,1.23
2023-02-21T11:41:46.152Z,1.00
2023-02-21T11:44:40.735Z,0.30
2023-02-21T11:47:37.147Z,0.20
2023-02-21T11:50:26.911Z,0.30
2023-02-21T11:53:30.444Z,0.22
2023-02-21T11:56:45.338Z,0.40
2023-02-21T11:59:59.238Z,0.15
2023-02-21T12:02:57.227Z,0.40
2023-02-21T12:05:48.671Z,0.50
2023-02-21T12:09:01.754Z,0.17
2023-02-21T12:12:02.517Z,0.30
2023-02-21T12:15:15.918Z,0.17
2023-02-21T12:18:17.756Z,0.40
2023-02-21T12:21:48.087Z,0.32
2023-02-21T12:24:42.912Z,0.30
2023-02-21T12:27:44.701Z,0.30
2023-02-21T12:30:58.423Z,0.43
2023-02-21T12:33:58.674Z,0.30
2023-02-21T12:37:12.885Z,0.30
2023-02-21T12:40:13.979Z,0.20
2023-02-21T12:43:21.446Z,0.17
2023-02-21T12:46:19.942Z,0.10
2023-02-21T12:49:19.512Z,0.50
2023-02-21T12:52:25.965Z,0.63
2023-02-21T12:55:26.816Z,0.30
2023-02-21T12:58:34.284Z,0.20
2023-02-21T13:01:56.080Z,0.60
2023-02-21T13:04:54.911Z,1.25
2023-02-21T13:07:50.312Z,0.30
2023-02-21T13:11:00.863Z,0.40
2023-02-21T13:13:47.728Z,0.20
2023-02-21T13:16:33.547Z,0.28
2023-02-21T13:19:19.726Z,0.40
2023-02-21T13:22:53.477Z,0.22
2023-02-21T13:25:53.932Z,0.22
2023-02-21T13:28:41.628Z,0.45
2023-02-21T13:31:38.428Z,0.38
2023-02-21T13:34:27.431Z,0.30
2023-02-21T13:37:26.208Z,0.28
2023-02-21T13:40:49.832Z,0.30
2023-02-21T13:43:38.007Z,0.60
2023-02-21T13:46:46.387Z,0.40
2023-02-21T13:49:42.975Z,0.45
2023-02-21T13:52:52.528Z,0.38
2023-02-21T13:55:39.883Z,0.52
2023-02-21T13:58:38.393Z,0.40
2023-02-21T14:01:30.213Z,0.50
2023-02-21T14:04:57.353Z,0.55
2023-02-21T14:08:04.416Z,0.82
2023-02-21T14:10:57.915Z,0.50
2023-02-21T14:14:00.211Z,0.93
2023-02-21T14:19:52.941Z,0.50
2023-02-21T14:22:39.291Z,0.57
2023-02-21T14:25:27.859Z,0.95
2023-02-21T14:28:51.192Z,0.40
2023-02-21T14:31:48.346Z,0.40
2023-02-21T14:34:49.768Z,0.40
2023-02-21T14:37:43.858Z,0.47
2023-02-21T14:40:35.121Z,0.57
2023-02-21T14:43:39.318Z,0.43
2023-02-21T14:46:51.209Z,0.35
2023-02-21T14:50:09.742Z,0.28
2023-02-21T14:53:25.380Z,0.30
2023-02-21T14:56:21.871Z,0.40
2023-02-21T14:59:16.582Z,0.30
2023-02-21T15:02:13.803Z,0.30
2023-02-21T15:05:20.494Z,0.30
2023-02-21T15:08:15.115Z,0.50
2023-02-21T15:11:03.186Z,0.40
2023-02-21T15:14:08.957Z,0.38
2023-02-21T15:16:59.022Z,0.40
2023-02-21T15:19:45.122Z,0.60
2023-02-21T15:22:30.362Z,0.35
2023-02-21T15:25:21.051Z,0.47
2023-02-21T15:28:19.874Z,0.30
2023-02-21T15:31:09.295Z,0.20
2023-02-21T15:33:55.028Z,0.30
2023-02-21T15:36:40.545Z,0.50
2023-02-21T15:39:38.579Z,0.38
2023-02-21T15:42:26.167Z,0.30
2023-02-21T15:45:21.126Z,0.22
2023-02-21T15:48:07.045Z,0.20
2023-02-21T15:50:52.791Z,0.30
2023-02-21T15:53:38.795Z,0.30
2023-02-21T15:56:28.590Z,0.55
2023-02-21T15:59:26.211Z,0.40
2023-02-21T16:02:11.863Z,0.50
2023-02-21T16:04:57.787Z,0.43
2023-02-21T16:07:46.150Z,0.57
2023-02-21T16:10:32.681Z,0.60
2023-02-21T16:13:19.175Z,0.80
2023-02-21T16:16:05.042Z,0.50
2023-02-21T16:18:56.491Z,0.50
2023-02-21T16:21:42.081Z,0.75
2023-02-21T16:24:31.236Z,0.60
2023-02-21T16:27:19.009Z,0.77
2023-02-21T16:30:06.274Z,0.50
2023-02-21T16:32:53.765Z,0.60
2023-02-21T16:35:39.150Z,0.60
2023-02-21T16:38:26.700Z,0.75
2023-02-21T16:41:16.921Z,0.80
2023-02-21T16:44:02.558Z,0.68
2023-02-21T16:46:51.379Z,0.50
2023-02-21T16:49:36.780Z,0.85
2023-02-21T16:52:22.438Z,0.63
2023-02-21T16:55:07.968Z,0.85
2023-02-21T16:57:59.148Z,0.52
2023-02-21T17:00:44.403Z,0.80
2023-02-21T17:03:29.898Z,0.70
2023-02-21T17:06:18.973Z,0.80
2023-02-21T17:09:04.329Z,0.80
2023-02-21T17:11:49.998Z,0.80
2023-02-21T17:14:35.690Z,0.70
2023-02-21T17:17:21.319Z,0.43
2023-02-21T17:20:08.306Z,0.50
2023-02-21T17:22:55.087Z,0.77
2023-02-21T17:25:40.686Z,0.68
2023-02-21T17:28:26.161Z,0.50
2023-02-21T17:31:18.928Z,1.20
2023-02-21T17:34:05.035Z,3.33
2023-02-21T17:36:54.286Z,5.80
2023-02-21T17:39:39.995Z,4.55
2023-02-21T17:42:25.975Z,2.90
2023-02-21T17:45:11.899Z,10.30
2023-02-21T17:47:57.581Z,1.88
2023-02-21T17:50:43.095Z,11.48
2023-02-21T17:53:28.718Z,27.40
2023-02-21T17:56:18.558Z,15.82
2023-02-21T17:59:04.210Z,28.90
2023-02-21T18:01:49.595Z,16.70
2023-02-21T18:04:35.532Z,4.95
2023-02-21T18:07:20.766Z,5.10
2023-02-21T18:10:06.640Z,11.68
2023-02-21T18:12:52.405Z,4.13
2023-02-21T18:15:37.886Z,5.07
2023-02-21T18:18:23.197Z,2.03
2023-02-21T18:21:09.248Z,1.67
2023-02-21T18:23:54.989Z,5.20
2023-02-21T18:26:41.693Z,2.13
2023-02-21T18:29:27.148Z,3.83
2023-02-21T18:32:12.652Z,3.75
2023-02-21T18:34:59.912Z,1.95
2023-02-21T18:37:47.260Z,2.33
2023-02-21T18:40:37.724Z,1.67
2023-02-21T18:43:29.887Z,1.48
2023-02-21T18:46:17.912Z,1.80
2023-02-21T18:49:03.551Z,5.75
2023-02-21T18:51:49.184Z,9.85
2023-02-21T18:54:35.460Z,8.55
2023-02-21T18:57:22.468Z,4.53
2023-02-21T19:00:09.181Z,4.05
2023-02-21T19:02:55.141Z,1.67
2023-02-21T19:05:40.562Z,2.05
2023-02-21T19:08:26.123Z,1.90
2023-02-21T19:11:13.205Z,1.83
2023-02-21T19:13:58.937Z,2.60
2023-02-21T19:16:44.531Z,1.85
2023-02-21T19:19:31.587Z,2.70
2023-02-21T19:22:17.259Z,1.85
2023-02-21T19:25:03.221Z,1.60
2023-02-21T19:27:48.605Z,2.28
2023-02-21T19:30:36.896Z,7.45
2023-02-21T19:33:24.208Z,8.43
2023-02-21T19:36:10.952Z,4.13
2023-02-21T19:38:56.510Z,8.60
2023-02-21T19:41:42.047Z,6.72
2023-02-21T19:44:27.350Z,8.00
2023-02-21T19:47:13.482Z,11.48
2023-02-21T19:49:58.835Z,17.35
2023-02-21T19:52:46.700Z,12.07
2023-02-21T19:55:33.147Z,3.42
2023-02-21T19:58:19.983Z,23.75
2023-02-21T20:01:07.157Z,26.10
2023-02-21T20:03:53.030Z,21.92
2023-02-21T20:06:38.808Z,8.38
2023-02-21T20:09:24.230Z,3.65
2023-02-21T20:12:09.950Z,2.70
2023-02-21T20:14:56.186Z,2.80
2023-02-21T20:17:42.487Z,2.72
2023-02-21T20:20:28.650Z,2.17
2023-02-21T20:23:13.880Z,2.53
2023-02-21T20:25:59.329Z,1.77
2023-02-21T20:28:47.752Z,2.67
2023-02-21T20:31:35.782Z,2.13
2023-02-21T20:34:24.532Z,2.00
2023-02-21T20:37:14.497Z,1.65
2023-02-21T20:40:01.601Z,2.22
2023-02-21T20:42:47.123Z,1.40
2023-02-21T20:45:33.321Z,2.63
2023-02-21T20:48:19.226Z,1.65
2023-02-21T20:51:07.925Z,1.85
2023-02-21T20:53:53.602Z,1.95
2023-02-21T20:56:41.635Z,2.78
2023-02-21T20:59:29.975Z,2.05
2023-02-21T21:02:15.718Z,2.33
2023-02-21T21:05:01.310Z,1.80
2023-02-21T21:07:47.021Z,2.88
2023-02-21T21:10:32.876Z,2.75
2023-02-21T21:13:18.401Z,2.05
2023-02-21T21:16:05.266Z,2.60
2023-02-21T21:18:51.386Z,2.10
2023-02-21T21:21:37.908Z,2.10
2023-02-21T21:24:23.537Z,2.88
2023-02-21T21:27:14.918Z,3.28
2023-02-21T21:30:01.287Z,1.70
2023-02-21T21:32:46.721Z,1.60
2023-02-21T21:35:32.510Z,1.67
2023-02-21T21:38:18.840Z,2.63
2023-02-21T21:41:13.476Z,2.35
2023-02-21T21:43:59.174Z,1.55
2023-02-21T21:46:49.242Z,2.03
2023-02-21T21:49:35.353Z,1.23
2023-02-21T21:52:23.903Z,0.75
2023-02-21T21:55:16.376Z,0.80
2023-02-21T21:58:02.872Z,0.65
2023-02-21T22:00:48.277Z,1.10
2023-02-21T22:03:34.832Z,1.15
2023-02-21T22:06:20.419Z,0.85
2023-02-21T22:09:07.572Z,1.13
2023-02-21T22:11:53.822Z,0.80
2023-02-21T22:14:39.376Z,1.00
2023-02-21T22:17:24.724Z,0.70
2023-02-21T22:20:20.135Z,0.60
2023-02-21T22:23:07.168Z,0.60
2023-02-21T22:25:52.687Z,0.82
2023-02-21T22:28:38.473Z,0.93
2023-02-21T22:31:25.960Z,1.10
2023-02-21T22:34:23.570Z,0.60
2023-02-21T22:37:10.394Z,0.63
2023-02-21T22:39:55.934Z,0.80
2023-02-21T22:42:41.997Z,0.93
2023-02-21T22:45:33.286Z,1.15
2023-02-21T22:48:20.732Z,0.93
2023-02-21T22:51:08.734Z,0.55
2023-02-21T22:53:55.728Z,0.85
2023-02-21T22:56:50.950Z,0.80
2023-02-21T22:59:37.724Z,0.60
2023-02-21T23:02:23.109Z,0.93
2023-02-21T23:05:10.584Z,1.60
2023-02-21T23:07:59.978Z,0.85
2023-02-21T23:10:45.941Z,0.90
2023-02-21T23:13:31.364Z,1.38
2023-02-21T23:16:22.047Z,1.25
2023-02-21T23:19:08.278Z,1.00
2023-02-21T23:21:54.619Z,1.30
2023-02-21T23:24:43.862Z,1.30
2023-02-21T23:27:33.863Z,1.17
2023-02-21T23:30:20.655Z,0.93
2023-02-21T23:33:16.349Z,1.10
2023-02-21T23:36:04.712Z,0.90
2023-02-21T23:38:51.308Z,1.20
2023-02-21T23:41:43.311Z,1.42
2023-02-21T23:44:28.865Z,1.55
2023-02-21T23:47:14.254Z,1.00
2023-02-21T23:49:59.626Z,2.05
2023-02-21T23:52:47.044Z,1.40
2023-02-21T23:55:35.852Z,1.73
2023-02-21T23:58:21.940Z,1.08
